Etusivu
METAR-TAF:

METAR-TAF

Lentoasemat :

Båtsfjord, Norja

Leveyspiiri: 70-38N, Pituuspiiri: 029-44E, korkeus merenpinnasta: 10 m

Tämänhetkinen sää

Tämä raportti tehtiin 1 tunti ja 8 minuuttia sitten, kello 13.50 UTC
Tuuli 30 kn idästä/kaakosta puuskistuen 40 kn:hen
Lämpötila -4°C
Kosteus 93%
Ilmanpaine 1006 hPa
Näkyvyys: 2000 m
heikkoa lumisadetta, matalaa lumituiskua

METAR: ENBS 241350Z 12030G40KT 2000 -SN DRSN VV012 M04/M05 Q1006

Aika: 15:58 (14:58 UTC)


TAF: puuttuu

Säähavainnot ja -ennusteet yli 4000 lentoasemalta (METAR- ja TAF-raportit).

Käytössä olevat sääasemat on merkitty karttaan keltaisilla ja punaisilla pisteillä.

Aseta hiiri pisteen päälle nähdäksesi sääaseman nimen.

Klikkaa sitten nähdäksesi säähavainnot ja -ennusteet.

Kartan vaihtaminen: klikkaa mustalla rastilla varustettuja vihreitä pisteitä, niin voit zoomata sisään; viivalla varustettua vihreää pistettä, niin voit zoomata ulos tai vihreitä nuolia, niin pääset viereisille kartoille.


METAR-TAF: